Time;durP1;ratioP1;P1;durP2;ratioP2;P2;SDS_P1;SDS_P2;PMS_P1;PMS_P2;Temp;Humidity;BMP_temperature;BMP_pressure;BME280_temperature;BME280_humidity;BME280_pressure;Samples;Min_cycle;Max_cycle;Signal;HPM_P1;HPM_P2
2021/12/30 00:01:45;;;;;;;7.75;2.45;;;;;;;;;;5087416;28;20081;-76
2021/12/30 00:04:11;;;;;;;5.82;2.40;;;;;;;;;;5094217;28;20067;-76
2021/12/30 00:06:40;;;;;;;10.15;2.40;;;;;;;;;;5088543;28;20024;-76
2021/12/30 00:09:10;;;;;;;6.90;2.15;;;;;;;;;;5073390;28;20037;-76
2021/12/30 00:11:37;;;;;;;5.30;2.10;;;;;;;;;;5077794;28;20024;-74
2021/12/30 00:14:03;;;;;;;8.85;2.50;;;;;;;;;;5078898;28;20024;-75
2021/12/30 00:16:29;;;;;;;11.38;2.33;;;;;;;;;;5073406;28;20025;-79
2021/12/30 00:18:56;;;;;;;10.93;3.05;;;;;;;;;;5055860;28;20032;-78
2021/12/30 00:21:23;;;;;;;6.40;2.47;;;;;;;;;;5057850;28;20054;-78
2021/12/30 00:23:53;;;;;;;5.88;2.50;;;;;;;;;;5059566;28;20098;-78
2021/12/30 00:26:22;;;;;;;6.00;2.45;;;;;;;;;;5057980;28;20036;-79
2021/12/30 00:28:48;;;;;;;6.88;2.65;;;;;;;;;;5076145;28;20040;-79
2021/12/30 00:31:15;;;;;;;6.32;2.17;;;;;;;;;;5055259;28;20104;-77
2021/12/30 00:33:41;;;;;;;11.13;2.40;;;;;;;;;;5073332;28;20044;-78
2021/12/30 00:36:08;;;;;;;6.55;2.25;;;;;;;;;;5073345;28;20017;-78
2021/12/30 00:38:35;;;;;;;8.52;2.78;;;;;;;;;;5076843;28;20027;-79
2021/12/30 00:41:01;;;;;;;7.07;2.40;;;;;;;;;;5038135;28;20047;-79
2021/12/30 00:43:27;;;;;;;9.45;2.45;;;;;;;;;;5073218;28;20021;-76
2021/12/30 00:45:53;;;;;;;6.70;2.50;;;;;;;;;;5072955;28;20032;-77
2021/12/30 00:48:19;;;;;;;7.75;2.78;;;;;;;;;;5073225;28;20151;-76
2021/12/30 00:50:46;;;;;;;6.05;2.53;;;;;;;;;;5078511;28;20029;-76
2021/12/30 00:53:13;;;;;;;8.48;2.40;;;;;;;;;;5072403;28;20034;-78
2021/12/30 00:55:39;;;;;;;8.13;2.10;;;;;;;;;;5077612;28;20029;-76
2021/12/30 00:58:06;;;;;;;9.43;2.67;;;;;;;;;;5077416;28;20044;-79
2021/12/30 01:00:33;;;;;;;9.40;2.35;;;;;;;;;;5076732;28;20128;-79
2021/12/30 01:03:13;;;;;;;6.45;2.42;;;;;;;;;;5081054;28;20050;-80
2021/12/30 01:05:39;;;;;;;5.18;2.30;;;;;;;;;;5066994;28;20035;-78
2021/12/30 01:08:06;;;;;;;8.35;2.03;;;;;;;;;;5060081;28;20024;-77
2021/12/30 01:10:32;;;;;;;7.38;2.22;;;;;;;;;;5060047;28;20565;-78
2021/12/30 01:13:04;;;;;;;8.00;2.47;;;;;;;;;;5078345;28;20024;-76
2021/12/30 01:15:45;;;;;;;8.50;2.30;;;;;;;;;;5076889;28;20024;-76
2021/12/30 01:18:41;;;;;;;6.47;2.35;;;;;;;;;;5061393;28;20085;-77
2021/12/30 01:21:10;;;;;;;7.05;2.70;;;;;;;;;;5080806;28;20020;-77
2021/12/30 01:23:36;;;;;;;11.13;2.45;;;;;;;;;;5077758;28;20380;-77
2021/12/30 01:26:04;;;;;;;5.78;2.50;;;;;;;;;;5095788;28;20047;-77
2021/12/30 01:28:30;;;;;;;6.65;2.45;;;;;;;;;;5075613;28;20510;-75
2021/12/30 01:30:56;;;;;;;9.23;2.58;;;;;;;;;;5075644;28;20028;-77
2021/12/30 01:33:22;;;;;;;10.15;2.25;;;;;;;;;;5057947;28;20028;-77
2021/12/30 01:35:48;;;;;;;8.20;2.40;;;;;;;;;;5062450;28;20460;-77
2021/12/30 01:38:16;;;;;;;6.88;2.53;;;;;;;;;;5081529;28;20533;-77
2021/12/30 01:40:43;;;;;;;6.03;2.05;;;;;;;;;;5060840;28;20452;-77
2021/12/30 01:43:11;;;;;;;12.48;2.47;;;;;;;;;;5057731;28;20111;-77
2021/12/30 01:45:37;;;;;;;5.07;2.22;;;;;;;;;;5075435;28;20020;-76
2021/12/30 01:48:03;;;;;;;8.23;2.42;;;;;;;;;;5057132;28;20387;-77
2021/12/30 01:50:29;;;;;;;7.05;2.28;;;;;;;;;;5079512;28;20557;-77
2021/12/30 01:52:55;;;;;;;5.70;2.25;;;;;;;;;;5080949;28;20449;-76
2021/12/30 01:55:24;;;;;;;12.25;2.42;;;;;;;;;;5074615;28;20020;-77
2021/12/30 01:57:50;;;;;;;6.80;2.40;;;;;;;;;;5057087;28;20085;-77
2021/12/30 02:00:18;;;;;;;4.03;1.80;;;;;;;;;;5075094;28;20086;-77
2021/12/30 02:02:47;;;;;;;5.18;2.28;;;;;;;;;;5056771;28;20472;-77
2021/12/30 02:05:13;;;;;;;6.38;2.50;;;;;;;;;;5061120;28;20399;-78
2021/12/30 02:08:19;;;;;;;4.97;1.92;;;;;;;;;;5083380;28;20468;-79
2021/12/30 02:10:45;;;;;;;5.53;2.08;;;;;;;;;;5079921;28;20115;-77
2021/12/30 02:13:12;;;;;;;5.53;2.17;;;;;;;;;;5063506;28;20033;-75
2021/12/30 02:15:38;;;;;;;6.72;2.20;;;;;;;;;;5074608;28;20021;-76
2021/12/30 02:18:04;;;;;;;6.05;1.77;;;;;;;;;;5057375;28;20055;-76
2021/12/30 02:20:39;;;;;;;5.07;2.15;;;;;;;;;;5076492;28;20028;-77
2021/12/30 02:23:05;;;;;;;8.90;2.28;;;;;;;;;;5059883;28;20051;-75
2021/12/30 02:25:31;;;;;;;4.85;1.70;;;;;;;;;;5074342;28;20400;-76
2021/12/30 02:27:57;;;;;;;4.13;1.75;;;;;;;;;;5056244;28;20104;-77
2021/12/30 02:30:23;;;;;;;4.68;1.73;;;;;;;;;;5074447;28;20111;-77
2021/12/30 02:32:50;;;;;;;5.75;1.60;;;;;;;;;;5075690;28;20032;-73
2021/12/30 02:35:19;;;;;;;3.33;1.70;;;;;;;;;;5060919;28;20028;-70
2021/12/30 02:37:45;;;;;;;4.05;1.50;;;;;;;;;;5056162;28;20024;-74
2021/12/30 02:40:11;;;;;;;4.25;2.00;;;;;;;;;;5074325;28;20039;-74
2021/12/30 02:42:37;;;;;;;6.05;1.63;;;;;;;;;;5056597;28;20017;-76
2021/12/30 02:45:03;;;;;;;3.78;1.58;;;;;;;;;;5074312;28;20163;-76
2021/12/30 02:47:33;;;;;;;4.15;1.52;;;;;;;;;;5074345;28;20021;-76
2021/12/30 02:49:59;;;;;;;2.95;1.58;;;;;;;;;;5045607;28;20021;-75
2021/12/30 02:52:38;;;;;;;3.00;1.52;;;;;;;;;;5079031;28;20021;-75
2021/12/30 02:55:06;;;;;;;3.45;1.52;;;;;;;;;;5062062;28;20027;-76
2021/12/30 02:57:32;;;;;;;2.72;1.20;;;;;;;;;;5076201;28;20442;-75
2021/12/30 02:59:58;;;;;;;4.65;1.25;;;;;;;;;;5056101;28;20033;-76
2021/12/30 03:02:24;;;;;;;4.07;1.60;;;;;;;;;;5074127;28;20028;-76
2021/12/30 03:04:50;;;;;;;4.50;1.42;;;;;;;;;;5077132;28;20024;-76
2021/12/30 03:07:18;;;;;;;3.33;1.17;;;;;;;;;;5082100;28;20031;-77
2021/12/30 03:09:44;;;;;;;2.58;1.23;;;;;;;;;;5057074;28;20048;-77
2021/12/30 03:12:10;;;;;;;4.88;1.50;;;;;;;;;;5074605;28;20116;-76
2021/12/30 03:14:39;;;;;;;3.47;1.60;;;;;;;;;;5074337;28;20082;-76
2021/12/30 03:17:05;;;;;;;2.25;1.20;;;;;;;;;;5073341;28;20047;-75
2021/12/30 03:19:40;;;;;;;2.45;1.30;;;;;;;;;;5057792;28;20016;-75
2021/12/30 03:22:12;;;;;;;3.83;1.67;;;;;;;;;;5080953;28;20025;-77
2021/12/30 03:24:38;;;;;;;3.03;1.30;;;;;;;;;;5070699;28;20089;-75
2021/12/30 03:27:06;;;;;;;3.83;1.45;;;;;;;;;;5075653;28;20032;-76
2021/12/30 03:29:32;;;;;;;3.67;1.50;;;;;;;;;;5093886;28;20024;-74
2021/12/30 03:31:58;;;;;;;2.38;1.20;;;;;;;;;;5093628;28;20539;-76
2021/12/30 03:34:24;;;;;;;8.00;1.17;;;;;;;;;;5076392;28;20033;-76
2021/12/30 03:36:50;;;;;;;4.93;1.58;;;;;;;;;;5080885;28;20017;-77
2021/12/30 03:39:16;;;;;;;3.28;1.42;;;;;;;;;;5074584;28;20105;-77
2021/12/30 03:41:42;;;;;;;6.03;1.58;;;;;;;;;;5074693;28;20052;-78
2021/12/30 03:44:08;;;;;;;4.43;1.20;;;;;;;;;;5074174;28;20033;-77
2021/12/30 03:46:34;;;;;;;3.90;1.42;;;;;;;;;;5073789;28;20059;-77
2021/12/30 03:49:01;;;;;;;3.55;1.10;;;;;;;;;;5077267;28;20059;-77
2021/12/30 03:51:27;;;;;;;3.13;1.30;;;;;;;;;;5069749;28;20024;-81
2021/12/30 03:53:57;;;;;;;3.05;1.38;;;;;;;;;;5075891;28;20024;-77
2021/12/30 03:56:24;;;;;;;4.13;1.48;;;;;;;;;;5075451;28;20476;-74
2021/12/30 03:58:51;;;;;;;4.13;1.30;;;;;;;;;;5075277;28;20036;-77
2021/12/30 04:01:18;;;;;;;6.68;1.42;;;;;;;;;;5074067;28;20032;-79
2021/12/30 04:03:44;;;;;;;5.63;1.60;;;;;;;;;;5076584;28;20028;-76
2021/12/30 04:06:11;;;;;;;8.20;1.40;;;;;;;;;;5078428;28;20099;-75
2021/12/30 04:08:37;;;;;;;3.35;1.25;;;;;;;;;;5073061;28;20510;-75
2021/12/30 04:11:03;;;;;;;6.10;1.60;;;;;;;;;;5055424;28;20092;-76
2021/12/30 04:13:29;;;;;;;5.00;1.33;;;;;;;;;;5073437;28;20098;-77
2021/12/30 04:15:56;;;;;;;18.85;1.70;;;;;;;;;;5055054;28;20455;-77
2021/12/30 04:18:57;;;;;;;4.80;1.40;;;;;;;;;;5075384;28;20060;-75
2021/12/30 04:21:23;;;;;;;5.73;1.63;;;;;;;;;;5054389;28;20380;-75
2021/12/30 04:23:49;;;;;;;3.03;1.50;;;;;;;;;;5072814;28;20553;-74
2021/12/30 04:26:15;;;;;;;5.07;1.75;;;;;;;;;;5074042;28;20036;-73
2021/12/30 04:28:41;;;;;;;7.45;1.38;;;;;;;;;;5076780;28;20086;-74
2021/12/30 04:31:07;;;;;;;2.80;1.23;;;;;;;;;;5077523;28;20026;-72
2021/12/30 04:33:34;;;;;;;4.03;1.27;;;;;;;;;;5078658;28;20484;-73
2021/12/30 04:36:00;;;;;;;2.47;1.20;;;;;;;;;;5090700;28;20463;-74
2021/12/30 04:38:26;;;;;;;3.33;1.15;;;;;;;;;;5098906;28;20035;-74
2021/12/30 04:40:53;;;;;;;7.55;1.50;;;;;;;;;;5080312;28;20020;-75
2021/12/30 04:43:19;;;;;;;4.00;1.13;;;;;;;;;;5097673;28;20031;-74
2021/12/30 04:45:47;;;;;;;5.70;1.02;;;;;;;;;;5078521;28;20028;-74
2021/12/30 04:48:13;;;;;;;3.00;1.10;;;;;;;;;;5078327;28;20067;-75
2021/12/30 04:50:39;;;;;;;4.78;1.17;;;;;;;;;;5096968;28;20391;-73
2021/12/30 04:53:05;;;;;;;2.30;0.90;;;;;;;;;;5096783;28;20141;-73
2021/12/30 04:55:31;;;;;;;4.18;1.08;;;;;;;;;;5096816;28;20498;-73
2021/12/30 04:57:57;;;;;;;3.60;1.10;;;;;;;;;;5096831;28;20027;-74
2021/12/30 05:00:23;;;;;;;3.35;0.90;;;;;;;;;;5096543;28;20039;-74
2021/12/30 05:05:21;;;;;;;2.55;0.90;;;;;;;;;;5096870;28;20020;-74
2021/12/30 05:07:47;;;;;;;8.45;1.08;;;;;;;;;;5096672;28;20486;-74
2021/12/30 05:10:12;;;;;;;2.65;1.00;;;;;;;;;;5096678;28;20028;-73
2021/12/30 05:12:38;;;;;;;3.17;0.90;;;;;;;;;;5078063;28;20050;-74
2021/12/30 05:15:05;;;;;;;1.98;0.70;;;;;;;;;;5058231;28;20036;-74
2021/12/30 05:17:31;;;;;;;5.00;1.00;;;;;;;;;;5076281;28;20028;-75
2021/12/30 05:19:57;;;;;;;5.35;0.90;;;;;;;;;;5076223;28;20032;-74
2021/12/30 05:22:23;;;;;;;2.05;0.85;;;;;;;;;;5057827;28;20035;-74
2021/12/30 05:24:49;;;;;;;6.00;0.80;;;;;;;;;;5057825;28;20041;-75
2021/12/30 05:27:16;;;;;;;1.90;0.80;;;;;;;;;;5076005;28;20035;-75
2021/12/30 05:29:42;;;;;;;2.30;1.02;;;;;;;;;;5058154;28;20056;-75
2021/12/30 05:32:11;;;;;;;4.20;0.82;;;;;;;;;;5057784;28;20109;-73
2021/12/30 05:34:37;;;;;;;4.57;1.35;;;;;;;;;;5075748;28;20082;-75
2021/12/30 05:37:03;;;;;;;5.63;0.88;;;;;;;;;;5057889;28;20024;-75
2021/12/30 05:39:30;;;;;;;3.08;0.70;;;;;;;;;;5074858;28;20036;-74
2021/12/30 05:41:56;;;;;;;4.30;0.95;;;;;;;;;;5075430;28;20462;-75
2021/12/30 05:44:22;;;;;;;9.20;0.80;;;;;;;;;;5057364;28;20464;-76
2021/12/30 05:46:48;;;;;;;3.92;0.93;;;;;;;;;;5075648;28;20070;-75
2021/12/30 05:49:14;;;;;;;3.55;1.10;;;;;;;;;;5075204;28;20456;-75
2021/12/30 05:51:41;;;;;;;2.60;0.90;;;;;;;;;;5075797;28;20021;-74
2021/12/30 05:54:08;;;;;;;5.50;0.90;;;;;;;;;;5075052;28;20024;-75
2021/12/30 05:56:34;;;;;;;4.10;0.85;;;;;;;;;;5075182;28;20535;-75
2021/12/30 05:59:00;;;;;;;5.47;0.98;;;;;;;;;;5075476;28;20476;-76
2021/12/30 06:01:26;;;;;;;2.55;0.80;;;;;;;;;;5075360;28;20024;-74
2021/12/30 06:03:52;;;;;;;2.17;0.95;;;;;;;;;;5075476;28;20388;-74
2021/12/30 06:06:18;;;;;;;4.25;0.90;;;;;;;;;;5057047;28;20444;-75
2021/12/30 06:08:44;;;;;;;2.55;0.98;;;;;;;;;;5074893;28;20151;-74
2021/12/30 06:11:09;;;;;;;2.78;1.00;;;;;;;;;;5074702;28;20042;-75
2021/12/30 06:13:36;;;;;;;2.80;0.90;;;;;;;;;;5056693;28;20482;-75
2021/12/30 06:16:02;;;;;;;2.53;1.10;;;;;;;;;;5075218;28;20032;-75
2021/12/30 06:18:27;;;;;;;3.40;1.10;;;;;;;;;;5074813;28;20024;-75
2021/12/30 06:20:54;;;;;;;2.40;0.90;;;;;;;;;;5075289;28;20025;-75
2021/12/30 06:23:19;;;;;;;6.85;1.10;;;;;;;;;;5074488;28;20036;-75
2021/12/30 06:25:45;;;;;;;3.53;1.15;;;;;;;;;;5074302;28;20103;-75
2021/12/30 06:28:11;;;;;;;3.95;1.20;;;;;;;;;;5074387;28;20036;-74
2021/12/30 06:30:37;;;;;;;3.88;1.17;;;;;;;;;;5074671;28;20029;-75
2021/12/30 06:33:03;;;;;;;2.60;0.85;;;;;;;;;;5074172;28;20082;-74
2021/12/30 06:35:32;;;;;;;6.82;1.08;;;;;;;;;;5077048;28;20073;-75
2021/12/30 06:37:59;;;;;;;3.22;0.93;;;;;;;;;;5074975;28;20021;-75
2021/12/30 06:40:25;;;;;;;3.47;1.00;;;;;;;;;;5074929;28;20537;-76
2021/12/30 06:42:51;;;;;;;2.97;1.20;;;;;;;;;;5074955;28;20498;-75
2021/12/30 06:45:17;;;;;;;3.03;1.05;;;;;;;;;;5075078;28;20032;-75
2021/12/30 06:47:46;;;;;;;1.80;0.80;;;;;;;;;;5073157;28;20388;-74
2021/12/30 06:50:14;;;;;;;2.70;0.90;;;;;;;;;;5074401;28;20035;-74
2021/12/30 06:52:41;;;;;;;1.90;0.80;;;;;;;;;;5073410;28;20024;-71
2021/12/30 06:55:08;;;;;;;5.43;1.20;;;;;;;;;;5073972;28;20088;-72
2021/12/30 06:57:34;;;;;;;7.70;0.90;;;;;;;;;;5074176;28;20038;-71
2021/12/30 07:00:00;;;;;;;4.55;1.08;;;;;;;;;;5075938;28;20029;-79
2021/12/30 07:02:26;;;;;;;4.53;0.90;;;;;;;;;;5076206;28;20040;-76
2021/12/30 07:04:52;;;;;;;2.22;0.68;;;;;;;;;;5075302;28;20043;-77
2021/12/30 07:07:18;;;;;;;2.72;1.00;;;;;;;;;;5075855;28;20077;-78
2021/12/30 07:09:44;;;;;;;4.20;1.02;;;;;;;;;;5058213;28;20071;-78
2021/12/30 07:12:10;;;;;;;5.35;1.15;;;;;;;;;;5089455;28;20016;-77
2021/12/30 07:14:36;;;;;;;5.70;1.05;;;;;;;;;;5098790;28;20035;-80
2021/12/30 07:17:02;;;;;;;3.08;1.20;;;;;;;;;;5096777;28;20027;-79
2021/12/30 07:19:28;;;;;;;2.40;0.98;;;;;;;;;;5096595;28;20028;-78
2021/12/30 07:21:57;;;;;;;5.00;1.10;;;;;;;;;;5099842;28;20081;-77
2021/12/30 07:24:44;;;;;;;2.15;0.98;;;;;;;;;;5087303;28;20052;-81
2021/12/30 07:27:10;;;;;;;5.93;1.20;;;;;;;;;;5101198;28;20032;-78
2021/12/30 07:29:36;;;;;;;2.75;1.17;;;;;;;;;;5094930;28;20036;-78
2021/12/30 07:32:02;;;;;;;2.67;0.93;;;;;;;;;;5094955;28;20149;-77
2021/12/30 07:34:28;;;;;;;4.05;1.10;;;;;;;;;;5094967;28;20024;-78
2021/12/30 07:36:54;;;;;;;5.18;1.40;;;;;;;;;;5096155;28;20487;-76
2021/12/30 07:39:20;;;;;;;3.92;1.17;;;;;;;;;;5084039;28;20031;-76
2021/12/30 07:44:33;;;;;;;3.78;1.35;;;;;;;;;;5066712;28;20480;-80
2021/12/30 07:46:59;;;;;;;4.60;1.30;;;;;;;;;;5056731;28;20028;-77
2021/12/30 07:49:25;;;;;;;14.07;1.23;;;;;;;;;;5057564;28;20127;-79
2021/12/30 07:51:51;;;;;;;4.97;1.40;;;;;;;;;;5075295;28;20024;-87
2021/12/30 07:54:17;;;;;;;7.35;1.80;;;;;;;;;;5056115;28;20020;-80
2021/12/30 07:56:43;;;;;;;6.57;1.83;;;;;;;;;;5057661;28;20091;-79
2021/12/30 07:59:09;;;;;;;10.15;1.95;;;;;;;;;;5075694;28;20036;-79
2021/12/30 08:01:35;;;;;;;6.32;1.63;;;;;;;;;;5073702;28;20075;-78
2021/12/30 08:04:01;;;;;;;5.68;1.52;;;;;;;;;;5092768;28;20021;-79
2021/12/30 08:06:39;;;;;;;15.13;2.08;;;;;;;;;;5095443;28;20020;-76
2021/12/30 08:09:06;;;;;;;10.95;2.25;;;;;;;;;;5061567;28;20033;-74
2021/12/30 08:11:32;;;;;;;9.95;2.30;;;;;;;;;;5056534;28;20480;-76
2021/12/30 08:13:59;;;;;;;9.40;2.53;;;;;;;;;;5056509;28;20025;-78
2021/12/30 08:16:26;;;;;;;9.57;2.30;;;;;;;;;;5057044;28;20074;-84
2021/12/30 08:18:52;;;;;;;9.00;1.88;;;;;;;;;;5039349;28;20029;-78
2021/12/30 08:21:19;;;;;;;9.80;2.30;;;;;;;;;;5057459;28;20033;-78
2021/12/30 08:23:46;;;;;;;15.63;2.53;;;;;;;;;;5061372;28;20465;-75
2021/12/30 08:26:12;;;;;;;8.00;2.63;;;;;;;;;;5057718;28;20049;-78
2021/12/30 08:28:38;;;;;;;9.10;2.70;;;;;;;;;;5038845;28;20086;-75
2021/12/30 08:31:04;;;;;;;12.98;3.25;;;;;;;;;;5056293;28;20025;-74
2021/12/30 08:33:36;;;;;;;11.48;2.83;;;;;;;;;;5061559;28;20060;-77
2021/12/30 08:36:02;;;;;;;;;;;;;;;;;;5060422;28;20021;-77
2021/12/30 08:38:28;;;;;;;11.90;2.60;;;;;;;;;;5040806;28;19916;-73
2021/12/30 08:40:54;;;;;;;21.42;3.03;;;;;;;;;;5095641;28;20036;-73
2021/12/30 08:43:20;;;;;;;20.33;3.22;;;;;;;;;;5079837;28;20032;-72
2021/12/30 08:45:53;;;;;;;42.00;4.40;;;;;;;;;;5075995;28;20025;-69
2021/12/30 08:48:20;;;;;;;28.23;3.95;;;;;;;;;;5061679;28;20041;-71
2021/12/30 08:50:46;;;;;;;18.75;3.50;;;;;;;;;;5075792;28;20027;-75
2021/12/30 08:53:12;;;;;;;32.22;5.18;;;;;;;;;;5076346;28;20032;-77
2021/12/30 08:55:38;;;;;;;27.25;3.65;;;;;;;;;;5075241;28;20029;-72
2021/12/30 08:58:04;;;;;;;16.20;3.78;;;;;;;;;;5074730;28;20035;-72
2021/12/30 09:00:31;;;;;;;19.25;3.75;;;;;;;;;;5074298;28;20029;-71
2021/12/30 09:03:10;;;;;;;22.42;4.00;;;;;;;;;;5076191;28;20036;-72
2021/12/30 09:06:05;;;;;;;28.77;4.13;;;;;;;;;;5042461;28;20112;-72
2021/12/30 09:08:32;;;;;;;27.20;4.45;;;;;;;;;;5043742;28;20135;-72
2021/12/30 09:10:58;;;;;;;23.73;4.43;;;;;;;;;;5056920;28;20384;-72
2021/12/30 09:13:24;;;;;;;33.63;4.75;;;;;;;;;;5074833;28;20024;-72
2021/12/30 09:15:50;;;;;;;22.25;4.97;;;;;;;;;;5055114;28;20024;-72
2021/12/30 09:18:16;;;;;;;21.15;4.57;;;;;;;;;;5075744;28;20028;-71
2021/12/30 09:20:43;;;;;;;20.15;4.45;;;;;;;;;;5074921;28;20111;-72
2021/12/30 09:23:10;;;;;;;19.02;4.70;;;;;;;;;;5074251;28;20032;-72
2021/12/30 09:25:37;;;;;;;18.05;4.38;;;;;;;;;;5094392;28;20149;-72
2021/12/30 09:28:04;;;;;;;23.50;4.28;;;;;;;;;;5075947;28;20128;-72
2021/12/30 09:30:30;;;;;;;20.38;4.68;;;;;;;;;;5094526;28;20048;-72
2021/12/30 09:32:57;;;;;;;23.90;4.43;;;;;;;;;;5094261;28;20656;-73
2021/12/30 09:35:23;;;;;;;21.00;3.72;;;;;;;;;;5094464;28;20051;-71
2021/12/30 09:37:49;;;;;;;23.58;4.72;;;;;;;;;;5076274;28;20031;-72
2021/12/30 09:40:16;;;;;;;19.35;4.05;;;;;;;;;;5094274;28;20024;-71
2021/12/30 09:42:45;;;;;;;19.88;3.85;;;;;;;;;;5075918;28;20029;-72
2021/12/30 09:45:11;;;;;;;15.02;3.75;;;;;;;;;;5076093;28;20081;-72
2021/12/30 09:47:42;;;;;;;19.38;3.90;;;;;;;;;;5094184;28;20036;-72
2021/12/30 09:50:08;;;;;;;19.13;4.75;;;;;;;;;;5093766;28;20041;-72
2021/12/30 09:52:34;;;;;;;16.23;3.97;;;;;;;;;;5093933;28;20525;-72
2021/12/30 09:55:00;;;;;;;19.95;4.10;;;;;;;;;;5094024;28;20023;-72
2021/12/30 09:57:26;;;;;;;25.48;4.32;;;;;;;;;;5093709;28;20123;-72
2021/12/30 09:59:53;;;;;;;16.48;3.45;;;;;;;;;;5075250;28;20063;-73
2021/12/30 10:02:19;;;;;;;19.55;3.90;;;;;;;;;;5093661;28;20490;-72
2021/12/30 10:04:45;;;;;;;20.80;4.63;;;;;;;;;;5093545;28;20024;-72
2021/12/30 10:07:19;;;;;;;16.65;3.88;;;;;;;;;;5093706;28;20348;-71
2021/12/30 10:09:50;;;;;;;13.73;3.53;;;;;;;;;;5093531;28;20063;-72
2021/12/30 10:12:32;;;;;;;14.68;3.60;;;;;;;;;;5075388;28;20038;-72
2021/12/30 10:14:58;;;;;;;14.65;3.30;;;;;;;;;;5093563;28;20524;-73
2021/12/30 10:17:28;;;;;;;20.02;4.00;;;;;;;;;;5093244;28;20024;-72
2021/12/30 10:19:55;;;;;;;15.27;3.08;;;;;;;;;;5075319;28;20499;-71
2021/12/30 10:22:22;;;;;;;16.08;3.85;;;;;;;;;;5093163;28;20110;-73
2021/12/30 10:24:49;;;;;;;13.18;2.92;;;;;;;;;;5093273;28;20119;-72
2021/12/30 10:27:28;;;;;;;14.00;3.55;;;;;;;;;;5093119;28;20414;-72
2021/12/30 10:29:55;;;;;;;15.13;3.72;;;;;;;;;;5092925;28;20079;-72
2021/12/30 10:32:22;;;;;;;15.80;3.58;;;;;;;;;;5074992;28;20380;-72
2021/12/30 10:35:04;;;;;;;14.07;3.00;;;;;;;;;;5093031;28;20127;-73
2021/12/30 10:37:30;;;;;;;11.88;2.80;;;;;;;;;;5093097;28;20028;-72
2021/12/30 10:39:56;;;;;;;10.70;2.95;;;;;;;;;;5092950;28;20032;-72
2021/12/30 10:42:22;;;;;;;15.10;3.30;;;;;;;;;;5093366;28;20463;-73
2021/12/30 10:44:48;;;;;;;17.00;3.47;;;;;;;;;;5093059;28;20024;-74
2021/12/30 10:47:15;;;;;;;14.02;3.10;;;;;;;;;;5093291;28;20106;-77
2021/12/30 10:49:41;;;;;;;13.55;3.33;;;;;;;;;;5093096;28;20462;-72
2021/12/30 10:52:07;;;;;;;14.32;3.22;;;;;;;;;;5080393;28;20468;-72
2021/12/30 10:54:37;;;;;;;15.30;3.25;;;;;;;;;;5072511;28;20020;-73
2021/12/30 10:57:10;;;;;;;20.23;3.55;;;;;;;;;;5072188;28;20719;-72
2021/12/30 10:59:56;;;;;;;16.67;3.70;;;;;;;;;;5071168;28;20029;-72
2021/12/30 11:02:24;;;;;;;12.95;2.88;;;;;;;;;;5071766;28;20507;-73
2021/12/30 11:04:49;;;;;;;17.23;3.22;;;;;;;;;;5040705;28;20024;-72
2021/12/30 11:07:21;;;;;;;13.02;3.30;;;;;;;;;;5071773;28;20043;-73
2021/12/30 11:09:48;;;;;;;12.60;3.47;;;;;;;;;;5071589;28;20112;-73
2021/12/30 11:12:15;;;;;;;17.63;3.75;;;;;;;;;;5071925;28;20044;-73
2021/12/30 11:14:41;;;;;;;26.70;3.67;;;;;;;;;;5072471;28;20017;-73
2021/12/30 11:17:14;;;;;;;16.35;3.63;;;;;;;;;;5072114;28;20070;-76
2021/12/30 11:19:42;;;;;;;12.48;3.08;;;;;;;;;;5071820;28;20016;-73
2021/12/30 11:22:11;;;;;;;13.30;2.83;;;;;;;;;;5071896;28;20039;-77
2021/12/30 11:24:39;;;;;;;20.65;3.20;;;;;;;;;;5053861;28;20133;-72
2021/12/30 11:27:07;;;;;;;17.05;2.95;;;;;;;;;;5072336;28;20055;-70
2021/12/30 11:29:35;;;;;;;18.15;3.60;;;;;;;;;;5071799;28;20040;-73
2021/12/30 11:32:01;;;;;;;16.77;3.38;;;;;;;;;;5071633;28;20420;-73
2021/12/30 11:34:29;;;;;;;25.77;3.55;;;;;;;;;;5054453;28;20025;-77
2021/12/30 11:36:55;;;;;;;31.90;3.58;;;;;;;;;;5071793;28;20025;-71
2021/12/30 11:39:22;;;;;;;31.40;3.20;;;;;;;;;;5071131;28;20039;-72
2021/12/30 11:41:57;;;;;;;18.95;3.30;;;;;;;;;;5071877;28;20039;-72
2021/12/30 11:44:36;;;;;;;12.10;2.88;;;;;;;;;;5071488;28;20071;-73
2021/12/30 11:47:03;;;;;;;16.67;3.50;;;;;;;;;;5071079;28;20640;-73
2021/12/30 11:49:47;;;;;;;18.33;2.90;;;;;;;;;;5071157;28;20086;-72
2021/12/30 11:52:13;;;;;;;22.95;6.75;;;;;;;;;;5071849;28;20105;-73
2021/12/30 11:54:40;;;;;;;200.52;53.90;;;;;;;;;;5071216;28;20150;-72
2021/12/30 11:57:28;;;;;;;305.23;96.38;;;;;;;;;;5071500;28;20021;-72
2021/12/30 11:59:58;;;;;;;384.15;132.23;;;;;;;;;;5071511;28;20483;-71
2021/12/30 12:02:27;;;;;;;420.77;138.93;;;;;;;;;;5074593;28;20039;-73
2021/12/30 12:04:53;;;;;;;437.95;142.05;;;;;;;;;;5089981;28;20099;-72
2021/12/30 12:07:19;;;;;;;416.02;135.77;;;;;;;;;;5071265;28;20021;-73
2021/12/30 12:09:47;;;;;;;427.83;134.50;;;;;;;;;;5071389;28;20041;-72
2021/12/30 12:12:14;;;;;;;437.98;133.65;;;;;;;;;;5071332;28;20063;-70
2021/12/30 12:14:44;;;;;;;415.15;130.52;;;;;;;;;;5087280;28;20028;-73
2021/12/30 12:17:12;;;;;;;401.08;128.35;;;;;;;;;;5080619;28;20126;-73
2021/12/30 12:19:42;;;;;;;406.85;129.27;;;;;;;;;;5071409;28;20093;-73
2021/12/30 12:22:17;;;;;;;415.88;125.07;;;;;;;;;;5071131;28;20033;-73
2021/12/30 12:24:44;;;;;;;406.05;125.43;;;;;;;;;;5071178;28;20044;-73
2021/12/30 12:27:30;;;;;;;387.67;119.63;;;;;;;;;;5071635;28;20021;-71
2021/12/30 12:29:57;;;;;;;372.73;114.70;;;;;;;;;;5052772;28;20036;-71
2021/12/30 12:32:34;;;;;;;386.67;119.53;;;;;;;;;;5058656;28;20037;-73
2021/12/30 12:35:05;;;;;;;358.48;113.07;;;;;;;;;;5070901;28;20044;-72
2021/12/30 12:37:39;;;;;;;362.13;111.80;;;;;;;;;;5079916;28;20380;-71
2021/12/30 12:40:12;;;;;;;335.15;100.78;;;;;;;;;;5077009;28;20024;-72
2021/12/30 12:42:58;;;;;;;308.70;92.07;;;;;;;;;;5071199;28;20655;-72
2021/12/30 12:45:24;;;;;;;303.20;93.20;;;;;;;;;;5073687;28;20404;-73
2021/12/30 12:48:09;;;;;;;294.33;83.60;;;;;;;;;;5069868;28;20077;-73
2021/12/30 12:50:38;;;;;;;283.38;79.40;;;;;;;;;;5072691;28;20041;-72
2021/12/30 12:53:18;;;;;;;262.25;73.75;;;;;;;;;;5081743;28;20069;-73
2021/12/30 12:55:44;;;;;;;243.80;68.38;;;;;;;;;;5074680;28;20020;-72
2021/12/30 12:58:10;;;;;;;211.55;63.03;;;;;;;;;;5083023;28;20030;-73
2021/12/30 13:00:36;;;;;;;216.77;60.00;;;;;;;;;;5081142;28;20062;-73
2021/12/30 13:03:03;;;;;;;204.60;54.67;;;;;;;;;;5081363;28;20450;-74
2021/12/30 13:05:29;;;;;;;200.80;54.72;;;;;;;;;;5080283;28;20118;-75
2021/12/30 13:07:56;;;;;;;188.57;51.63;;;;;;;;;;5075065;28;20464;-74
2021/12/30 13:10:22;;;;;;;157.40;43.00;;;;;;;;;;5074195;28;20150;-74
2021/12/30 13:12:48;;;;;;;158.13;41.55;;;;;;;;;;5074004;28;20047;-73
2021/12/30 13:15:15;;;;;;;146.27;39.45;;;;;;;;;;5072345;28;20500;-72
2021/12/30 13:17:43;;;;;;;122.28;35.35;;;;;;;;;;5076053;28;20115;-72
2021/12/30 13:20:10;;;;;;;127.65;36.13;;;;;;;;;;5077030;28;20028;-72
2021/12/30 13:22:36;;;;;;;137.35;36.13;;;;;;;;;;5061448;28;20033;-73
2021/12/30 13:25:02;;;;;;;111.65;30.73;;;;;;;;;;5081995;28;20043;-72
2021/12/30 13:27:34;;;;;;;103.20;29.02;;;;;;;;;;5075864;28;20494;-72
2021/12/30 13:30:02;;;;;;;103.78;28.48;;;;;;;;;;5079174;28;20044;-71
2021/12/30 13:32:30;;;;;;;96.57;26.05;;;;;;;;;;5064077;28;20073;-73
2021/12/30 13:35:02;;;;;;;79.00;22.17;;;;;;;;;;5074209;28;20032;-71
2021/12/30 13:37:30;;;;;;;46.45;13.88;;;;;;;;;;5074634;28;20424;-72
2021/12/30 13:39:57;;;;;;;41.15;12.02;;;;;;;;;;5068859;28;20029;-72
2021/12/30 13:42:25;;;;;;;38.40;10.85;;;;;;;;;;5091054;28;20024;-72
2021/12/30 13:44:53;;;;;;;40.30;10.50;;;;;;;;;;5093662;28;20774;-72
2021/12/30 13:47:21;;;;;;;37.17;9.65;;;;;;;;;;5093761;28;20035;-72
2021/12/30 13:49:48;;;;;;;35.83;9.18;;;;;;;;;;5093137;28;20035;-72
2021/12/30 13:52:14;;;;;;;34.28;8.23;;;;;;;;;;5077250;28;20089;-72
2021/12/30 13:54:40;;;;;;;28.42;7.40;;;;;;;;;;5078968;28;20492;-72
2021/12/30 13:57:06;;;;;;;23.50;7.03;;;;;;;;;;5072962;28;20029;-72
2021/12/30 13:59:32;;;;;;;24.67;6.10;;;;;;;;;;5084738;28;20060;-72
2021/12/30 14:02:09;;;;;;;18.63;5.45;;;;;;;;;;5069767;28;20518;-71
2021/12/30 14:04:39;;;;;;;25.25;4.68;;;;;;;;;;5052725;28;20029;-73
2021/12/30 14:07:05;;;;;;;22.38;5.32;;;;;;;;;;5072328;28;20036;-71
2021/12/30 14:09:32;;;;;;;15.23;4.18;;;;;;;;;;5072536;28;20029;-72
2021/12/30 14:12:02;;;;;;;22.65;4.35;;;;;;;;;;5054839;28;20066;-71
2021/12/30 14:14:31;;;;;;;15.63;4.22;;;;;;;;;;5074065;28;20064;-75
2021/12/30 14:16:58;;;;;;;15.50;3.53;;;;;;;;;;5080236;28;20024;-68
2021/12/30 14:19:33;;;;;;;13.45;3.85;;;;;;;;;;5067831;28;20510;-73
2021/12/30 14:21:59;;;;;;;11.35;3.20;;;;;;;;;;5068503;28;20040;-74
2021/12/30 14:24:27;;;;;;;17.42;3.75;;;;;;;;;;5061511;28;20100;-73
2021/12/30 14:26:54;;;;;;;11.05;3.25;;;;;;;;;;5065207;28;20024;-73
2021/12/30 14:29:21;;;;;;;15.30;3.42;;;;;;;;;;5068405;28;20181;-72
2021/12/30 14:31:54;;;;;;;14.00;3.10;;;;;;;;;;5059335;28;20539;-72
2021/12/30 14:34:21;;;;;;;13.45;2.90;;;;;;;;;;5073184;28;20033;-72
2021/12/30 14:36:48;;;;;;;10.48;3.20;;;;;;;;;;5077260;28;20024;-72
2021/12/30 14:39:19;;;;;;;15.63;3.58;;;;;;;;;;5077704;28;20032;-73
2021/12/30 14:41:45;;;;;;;12.60;2.67;;;;;;;;;;5072506;28;20844;-79
2021/12/30 14:44:12;;;;;;;12.10;3.28;;;;;;;;;;5072874;28;20028;-79